Time;durP1;ratioP1;P1;durP2;ratioP2;P2;SDS_P1;SDS_P2;PMS_P1;PMS_P2;Temp;Humidity;BMP_temperature;BMP_pressure;BME280_temperature;BME280_humidity;BME280_pressure;Samples;Min_cycle;Max_cycle;Signal;HPM_P1;HPM_P2
2022/05/17 00:01:01;;;;;;;1999.90;999.90;;;;;;;12.85;90.42;99767.16;8196301;28;20093;-74
2022/05/17 00:05:04;;;;;;;1999.90;999.90;;;;;;;12.70;90.06;99765.50;8199291;28;20047;-74
2022/05/17 00:09:05;;;;;;;1999.90;999.90;;;;;;;12.65;89.97;99766.44;8215348;28;20082;-74
2022/05/17 00:13:07;;;;;;;1999.90;999.90;;;;;;;12.60;90.48;99768.22;8200619;28;20073;-74
2022/05/17 00:17:09;;;;;;;1999.90;999.90;;;;;;;12.61;90.77;99769.94;8193279;28;20059;-74
2022/05/17 00:21:10;;;;;;;1999.90;999.90;;;;;;;12.57;90.58;99774.31;8215387;28;20075;-74
2022/05/17 00:25:15;;;;;;;1999.90;999.90;;;;;;;12.56;90.68;99774.28;8216269;28;20047;-74
2022/05/17 00:29:17;;;;;;;1999.90;999.90;;;;;;;12.57;90.91;99773.44;8221445;28;20061;-74
2022/05/17 00:33:21;;;;;;;1999.90;999.90;;;;;;;12.55;90.86;99769.97;8196955;28;20038;-74
2022/05/17 00:37:22;;;;;;;1999.90;999.90;;;;;;;12.52;91.21;99775.19;8200101;28;20181;-74
2022/05/17 00:41:24;;;;;;;1999.90;999.90;;;;;;;12.48;90.76;99761.31;8224778;28;20046;-75
2022/05/17 00:45:27;;;;;;;1999.90;999.90;;;;;;;12.44;90.58;99759.63;8206967;28;20352;-74
2022/05/17 00:49:37;;;;;;;1999.90;999.90;;;;;;;12.31;90.89;99758.81;8200640;28;20043;-74
2022/05/17 00:53:39;;;;;;;1999.90;999.90;;;;;;;12.29;90.92;99759.72;8193348;28;20043;-75
2022/05/17 00:57:47;;;;;;;1999.90;999.90;;;;;;;12.30;90.99;99767.50;8218780;28;20137;-74
2022/05/17 01:01:50;;;;;;;1999.90;999.90;;;;;;;12.27;91.10;99766.66;8208989;28;20059;-74
2022/05/17 01:05:54;;;;;;;1999.90;999.90;;;;;;;12.25;91.04;99766.69;8216039;28;20129;-75
2022/05/17 01:09:56;;;;;;;1999.90;999.90;;;;;;;12.22;90.94;99773.66;8214996;28;20082;-75
2022/05/17 01:18:18;;;;;;;1999.90;999.90;;;;;;;12.14;90.49;99762.38;8195588;28;20058;-74
2022/05/17 01:22:20;;;;;;;1999.90;999.90;;;;;;;12.10;90.14;99766.75;8193548;28;20050;-75
2022/05/17 01:26:25;;;;;;;1999.90;999.90;;;;;;;12.03;90.36;99762.44;8195876;28;20506;-75
2022/05/17 01:30:30;;;;;;;1999.90;999.90;;;;;;;12.00;90.24;99758.09;8194729;28;20343;-75
2022/05/17 01:34:31;;;;;;;1999.90;999.90;;;;;;;11.97;90.49;99767.66;8212141;28;20059;-74
2022/05/17 01:38:35;;;;;;;1999.90;999.90;;;;;;;11.93;89.98;99756.41;8192279;28;20070;-75
2022/05/17 01:42:37;;;;;;;1999.90;999.90;;;;;;;11.83;89.84;99754.69;8205014;28;20432;-75
2022/05/17 01:46:39;;;;;;;1999.90;999.90;;;;;;;11.80;90.57;99746.91;8198207;28;20722;-75
2022/05/17 01:50:41;;;;;;;1999.90;999.90;;;;;;;11.74;91.21;99765.13;8193272;28;20062;-75
2022/05/17 01:54:42;;;;;;;;;;;;;;;11.72;90.54;99754.72;8206067;28;20078;-75
2022/05/17 01:58:44;;;;;;;1999.90;999.90;;;;;;;11.71;90.61;99747.78;8204137;28;19926;-75
2022/05/17 02:02:45;;;;;;;1999.90;999.90;;;;;;;11.71;90.85;99757.31;8188713;28;20061;-75
2022/05/17 02:06:50;;;;;;;1999.90;999.90;;;;;;;11.55;90.81;99753.03;8215789;28;20042;-75
2022/05/17 02:10:52;;;;;;;1999.90;999.90;;;;;;;11.49;90.34;99741.78;8216206;28;20093;-75
2022/05/17 02:14:53;;;;;;;1999.90;999.90;;;;;;;11.41;90.75;99746.13;8214912;28;20133;-74
2022/05/17 02:18:54;;;;;;;1999.90;999.90;;;;;;;11.43;90.79;99746.97;8217935;28;20081;-75
2022/05/17 02:22:56;;;;;;;1999.90;999.90;;;;;;;11.39;91.03;99750.47;8204114;28;20073;-75
2022/05/17 02:26:58;;;;;;;1999.90;999.90;;;;;;;11.40;90.95;99743.53;8222956;28;20058;-75
2022/05/17 02:31:00;;;;;;;1999.90;999.90;;;;;;;11.40;91.36;99754.78;8216201;28;20442;-75
2022/05/17 02:35:03;;;;;;;1999.90;999.90;;;;;;;11.40;91.29;99761.72;8209771;28;20096;-75
2022/05/17 02:39:05;;;;;;;1999.90;999.90;;;;;;;11.39;91.47;99754.81;8214053;28;20137;-75
2022/05/17 02:43:12;;;;;;;1999.90;999.90;;;;;;;11.35;91.93;99758.28;8220632;28;20083;-75
2022/05/17 02:47:14;;;;;;;1999.90;999.90;;;;;;;11.36;91.45;99765.22;8215874;28;20631;-75
2022/05/17 02:51:18;;;;;;;1999.90;999.90;;;;;;;11.34;91.62;99769.56;8220362;28;20078;-75
2022/05/17 02:55:20;;;;;;;1999.90;999.90;;;;;;;11.28;91.59;99772.13;8218415;28;20669;-75
2022/05/17 02:59:22;;;;;;;1999.90;999.90;;;;;;;11.29;91.33;99771.28;8219602;28;20591;-75
2022/05/17 03:03:24;;;;;;;1999.90;999.90;;;;;;;11.26;91.66;99779.06;8215490;28;20069;-75
2022/05/17 03:07:29;;;;;;;1999.90;999.90;;;;;;;11.18;91.28;99779.09;8203481;28;20047;-75
2022/05/17 03:11:31;;;;;;;1999.90;999.90;;;;;;;11.10;91.11;99778.22;8197378;28;20470;-75
2022/05/17 03:15:32;;;;;;;1999.90;999.90;;;;;;;11.10;91.46;99780.81;8208777;28;20074;-75
2022/05/17 03:19:33;;;;;;;1999.90;999.90;;;;;;;11.04;91.16;99773.03;8215856;28;20133;-75
2022/05/17 03:23:35;;;;;;;1999.90;999.90;;;;;;;11.02;90.49;99790.34;8209202;28;20053;-75
2022/05/17 03:27:37;;;;;;;1999.90;999.90;;;;;;;10.97;91.39;99790.38;8214386;28;20783;-75
2022/05/17 03:31:38;;;;;;;1999.90;999.90;;;;;;;10.98;91.63;99784.31;8210385;28;20058;-75
2022/05/17 03:35:40;;;;;;;1999.90;999.90;;;;;;;11.00;91.44;99785.16;8218831;28;20449;-75
2022/05/17 03:39:41;;;;;;;1999.90;999.90;;;;;;;10.84;91.01;99773.03;8194994;28;20083;-75
2022/05/17 03:43:43;;;;;;;1999.90;999.90;;;;;;;10.85;91.76;99780.81;8214201;28;20062;-75
2022/05/17 03:47:45;;;;;;;1999.90;999.90;;;;;;;10.88;92.52;99783.41;8194765;28;20146;-75
2022/05/17 03:51:47;;;;;;;1999.90;999.90;;;;;;;10.89;92.25;99779.09;8219005;28;20054;-76
2022/05/17 03:55:49;;;;;;;1999.90;999.90;;;;;;;10.92;92.11;99784.28;8185397;28;20066;-76
2022/05/17 03:59:50;;;;;;;1999.90;999.90;;;;;;;10.95;92.46;99791.19;8219116;28;20510;-76
2022/05/17 04:03:52;;;;;;;1999.90;999.90;;;;;;;10.99;91.79;99798.16;8206043;28;20104;-76
2022/05/17 04:07:57;;;;;;;1999.90;999.90;;;;;;;11.00;92.36;99799.88;8233787;28;20121;-76
2022/05/17 04:11:59;;;;;;;1999.90;999.90;;;;;;;11.00;92.39;99798.16;8216486;28;20051;-76
2022/05/17 04:16:02;;;;;;;1999.90;999.90;;;;;;;11.02;91.95;99796.41;8198158;28;20058;-76
2022/05/17 04:20:04;;;;;;;1999.90;999.90;;;;;;;11.09;92.24;99799.88;8219932;28;20348;-76
2022/05/17 04:24:06;;;;;;;1999.90;999.90;;;;;;;11.19;92.10;99797.28;8212951;28;20043;-76
2022/05/17 04:28:08;;;;;;;1999.90;999.90;;;;;;;11.23;92.00;99800.75;8201140;28;20074;-76
2022/05/17 04:32:15;;;;;;;1999.90;999.90;;;;;;;11.29;92.63;99799.88;8194645;28;20069;-76
2022/05/17 04:36:16;;;;;;;1999.90;999.90;;;;;;;11.42;92.32;99807.66;8196304;28;20426;-75
2022/05/17 04:40:18;;;;;;;1999.90;999.90;;;;;;;11.53;92.19;99817.19;8219087;28;20043;-75
2022/05/17 04:44:20;;;;;;;1999.90;999.90;;;;;;;11.65;91.61;99812.81;8215138;28;20045;-76
2022/05/17 04:48:24;;;;;;;1999.90;999.90;;;;;;;11.74;91.50;99818.00;8209199;28;20082;-76
2022/05/17 04:52:26;;;;;;;1999.90;999.90;;;;;;;11.82;91.78;99819.75;8215068;28;20135;-75
2022/05/17 04:56:28;;;;;;;1999.90;999.90;;;;;;;11.90;91.76;99818.88;8220123;28;20078;-75
2022/05/17 05:00:29;;;;;;;1999.90;999.90;;;;;;;11.96;91.74;99818.84;8194295;28;20043;-75
2022/05/17 05:04:31;;;;;;;1999.90;999.90;;;;;;;12.08;91.92;99821.41;8214844;28;20130;-75
2022/05/17 05:08:32;;;;;;;1999.90;999.90;;;;;;;12.25;91.58;99823.09;8195106;28;20055;-75
2022/05/17 05:12:35;;;;;;;1999.90;999.90;;;;;;;12.46;91.48;99830.81;8215276;28;20070;-75
2022/05/17 05:16:38;;;;;;;1999.90;999.90;;;;;;;12.64;90.47;99828.09;8208859;28;20069;-76
2022/05/17 05:20:40;;;;;;;1999.90;999.90;;;;;;;12.76;89.65;99834.13;8209132;28;20043;-74
2022/05/17 05:24:41;;;;;;;1999.90;999.90;;;;;;;12.92;89.62;99826.16;8219669;28;20051;-74
2022/05/17 05:28:44;;;;;;;1999.90;999.90;;;;;;;13.10;89.43;99840.81;8210427;28;20336;-74
2022/05/17 05:32:50;;;;;;;1999.90;999.90;;;;;;;13.25;89.01;99839.84;8207663;28;20055;-74
2022/05/17 05:36:52;;;;;;;1999.90;999.90;;;;;;;13.42;89.11;99837.97;8194981;28;20067;-74
2022/05/17 05:40:53;;;;;;;1999.90;999.90;;;;;;;13.66;88.55;99839.50;8202554;28;20078;-74
2022/05/17 05:44:55;;;;;;;1999.90;999.90;;;;;;;13.89;87.92;99840.13;8194966;28;20410;-75
2022/05/17 05:48:57;;;;;;;1999.90;999.90;;;;;;;14.26;87.13;99846.69;8190658;28;20083;-75
2022/05/17 05:53:04;;;;;;;1999.90;999.90;;;;;;;14.51;86.27;99846.38;8216644;28;20050;-75
2022/05/17 05:57:06;;;;;;;1999.90;999.90;;;;;;;14.89;85.46;99847.59;8219620;28;20039;-75
2022/05/17 06:01:08;;;;;;;1999.90;999.90;;;;;;;15.31;84.05;99846.09;8219857;28;20702;-75
2022/05/17 06:05:10;;;;;;;1999.90;999.90;;;;;;;15.37;83.77;99845.97;8200697;28;20289;-75
2022/05/17 06:09:11;;;;;;;1999.90;999.90;;;;;;;15.40;83.54;99861.63;8199490;28;20363;-75
2022/05/17 06:13:14;;;;;;;1999.90;999.90;;;;;;;15.46;83.44;99858.06;8203962;28;20760;-75
2022/05/17 06:17:15;;;;;;;1999.90;999.90;;;;;;;15.56;84.35;99853.53;8197352;28;20145;-75
2022/05/17 06:21:17;;;;;;;1999.90;999.90;;;;;;;15.69;83.89;99855.06;8198795;28;20051;-75
2022/05/17 06:25:18;;;;;;;1999.90;999.90;;;;;;;15.89;83.82;99855.56;8192080;28;20050;-76
2022/05/17 06:29:20;;;;;;;;;;;;;;;16.20;83.07;99855.00;8214261;28;20043;-75
2022/05/17 06:33:22;;;;;;;1999.90;999.90;;;;;;;16.42;82.71;99855.41;8210118;28;20024;-76
2022/05/17 06:37:24;;;;;;;1999.90;999.90;;;;;;;16.61;82.04;99848.88;8218938;28;20054;-76
2022/05/17 06:41:25;;;;;;;1999.90;999.90;;;;;;;16.80;81.41;99852.88;8204054;28;20062;-76
2022/05/17 06:45:27;;;;;;;1999.90;999.90;;;;;;;16.94;80.58;99854.31;8198197;28;20043;-77
2022/05/17 06:49:29;;;;;;;1999.90;999.90;;;;;;;17.14;80.54;99857.34;8217057;28;20473;-76
2022/05/17 06:53:31;;;;;;;1999.90;999.90;;;;;;;17.26;79.67;99851.81;8202825;28;20093;-74
2022/05/17 06:57:32;;;;;;;1999.90;999.90;;;;;;;17.42;79.55;99865.44;8218835;28;20042;-75
2022/05/17 07:01:34;;;;;;;1999.90;999.90;;;;;;;17.36;80.23;99863.78;8213530;28;20215;-75
2022/05/17 07:05:36;;;;;;;1999.90;999.90;;;;;;;17.44;79.88;99861.84;8198045;28;20404;-76
2022/05/17 07:09:38;;;;;;;1999.90;999.90;;;;;;;17.56;80.25;99854.56;8215321;28;20078;-75
2022/05/17 07:13:39;;;;;;;1999.90;999.90;;;;;;;17.74;79.97;99862.00;8218060;28;20051;-76
2022/05/17 07:17:41;;;;;;;1999.90;999.90;;;;;;;17.85;79.73;99862.59;8190567;28;20057;-76
2022/05/17 07:21:42;;;;;;;1999.90;999.90;;;;;;;17.97;78.08;99864.91;8215093;28;20085;-76
2022/05/17 07:25:45;;;;;;;1999.90;999.90;;;;;;;18.18;77.71;99860.81;8197789;28;20059;-75
2022/05/17 07:29:48;;;;;;;1999.90;999.90;;;;;;;18.43;77.28;99859.19;8198937;28;20061;-76
2022/05/17 07:33:49;;;;;;;1999.90;999.90;;;;;;;18.62;77.10;99866.56;8212468;28;20046;-76
2022/05/17 07:37:51;;;;;;;1999.90;999.90;;;;;;;18.99;76.81;99859.28;8201669;28;20540;-76
2022/05/17 07:41:52;;;;;;;1999.90;999.90;;;;;;;19.58;74.65;99863.59;8199389;28;20053;-76
2022/05/17 07:45:54;;;;;;;1999.90;999.90;;;;;;;19.85;72.99;99853.88;8209730;28;20085;-76
2022/05/17 07:49:56;;;;;;;1999.90;999.90;;;;;;;20.12;71.03;99858.16;8212393;28;20085;-75
2022/05/17 07:53:57;;;;;;;1999.90;999.90;;;;;;;20.51;68.73;99868.22;8201355;28;20053;-76
2022/05/17 07:57:59;;;;;;;1999.90;999.90;;;;;;;20.99;67.32;99857.53;8214004;28;20166;-76
2022/05/17 08:02:00;;;;;;;1999.90;999.90;;;;;;;21.48;65.82;99849.44;8191820;28;20174;-75
2022/05/17 08:06:02;;;;;;;1999.90;999.90;;;;;;;21.83;64.67;99856.72;8192298;28;20401;-76
2022/05/17 08:10:05;;;;;;;1999.90;999.90;;;;;;;22.22;63.56;99855.94;8199984;28;20130;-76
2022/05/17 08:14:06;;;;;;;1999.90;999.90;;;;;;;22.40;61.64;99857.75;8190726;28;20039;-76
2022/05/17 08:18:14;;;;;;;1999.90;999.90;;;;;;;23.02;58.89;99851.38;8188179;28;20058;-76
2022/05/17 08:22:16;;;;;;;1999.90;999.90;;;;;;;23.21;56.19;99861.94;8171555;28;20050;-76
2022/05/17 08:30:38;;;;;;;1999.90;999.90;;;;;;;23.03;55.72;99863.66;8209228;28;20733;-76
2022/05/17 08:34:39;;;;;;;;;;;;;;;23.19;56.05;99863.78;8207941;28;20593;-76
2022/05/17 08:38:47;;;;;;;1999.90;999.90;;;;;;;23.62;55.07;99867.00;8188075;28;20033;-76
2022/05/17 08:43:26;;;;;;;1999.90;999.90;;;;;;;24.09;53.46;99853.97;8193754;28;20053;-76
2022/05/17 08:47:42;;;;;;;1999.90;999.90;;;;;;;24.27;51.78;99860.94;8194935;28;20133;-76
2022/05/17 08:52:21;;;;;;;1999.90;999.90;;;;;;;24.52;50.50;99849.03;8213864;28;20042;-76
2022/05/17 08:56:27;;;;;;;1999.90;999.90;;;;;;;24.79;50.42;99849.31;8198985;28;20039;-76
2022/05/17 09:00:38;;;;;;;1999.90;999.90;;;;;;;25.03;49.77;99844.47;8207543;28;20069;-76
2022/05/17 09:04:51;;;;;;;1999.90;999.90;;;;;;;25.22;49.21;99840.66;8208765;28;20109;-76
2022/05/17 09:09:01;;;;;;;1999.90;999.90;;;;;;;25.44;47.92;99834.09;8213453;28;20051;-76
2022/05/17 09:13:22;;;;;;;1999.90;999.90;;;;;;;25.71;47.96;99832.50;8201041;28;20058;-76
2022/05/17 09:17:25;;;;;;;1999.90;999.90;;;;;;;25.92;46.22;99825.03;8192002;28;20133;-75
2022/05/17 09:21:33;;;;;;;1999.90;999.90;;;;;;;26.10;46.48;99823.91;8217278;28;20054;-75
2022/05/17 09:25:46;;;;;;;1999.90;999.90;;;;;;;26.18;45.61;99826.94;8201051;28;20046;-75
2022/05/17 09:29:50;;;;;;;1999.90;999.90;;;;;;;26.36;44.59;99818.81;8221302;28;20058;-75
2022/05/17 09:33:53;;;;;;;1999.90;999.90;;;;;;;26.48;45.53;99818.91;8194666;28;20078;-75
2022/05/17 09:37:58;;;;;;;1999.90;999.90;;;;;;;26.55;44.37;99819.34;8217824;28;20363;-76
2022/05/17 09:42:06;;;;;;;1999.90;999.90;;;;;;;26.62;43.35;99817.16;8198429;28;20050;-76
2022/05/17 09:46:17;;;;;;;1999.90;999.90;;;;;;;26.59;43.11;99817.38;8214723;28;20065;-76
2022/05/17 09:54:48;;;;;;;1999.90;999.90;;;;;;;26.96;43.53;99806.06;8216821;28;20057;-76
2022/05/17 09:58:49;;;;;;;1999.90;999.90;;;;;;;26.97;43.01;99813.09;8218641;28;20304;-75
2022/05/17 10:03:00;;;;;;;1999.90;999.90;;;;;;;26.49;42.50;99809.94;8209943;28;20165;-75
2022/05/17 10:07:17;;;;;;;1999.90;999.90;;;;;;;26.32;43.66;99798.63;8212565;28;20106;-74
2022/05/17 10:11:23;;;;;;;1999.90;999.90;;;;;;;26.36;44.23;99795.69;8194304;28;20502;-74
2022/05/17 10:15:26;;;;;;;1999.90;999.90;;;;;;;26.56;42.32;99791.75;8211239;28;20042;-75
2022/05/17 10:19:53;;;;;;;1999.90;999.90;;;;;;;26.63;43.35;99785.09;8199453;28;20070;-75
2022/05/17 10:24:04;;;;;;;1999.90;999.90;;;;;;;26.78;41.88;99781.44;8217580;28;20055;-75
2022/05/17 10:28:47;;;;;;;1999.90;999.90;;;;;;;26.66;43.42;99774.25;8220343;28;20058;-75
2022/05/17 10:33:14;;;;;;;1999.90;999.90;;;;;;;26.72;42.28;99780.97;8214118;28;20086;-75
2022/05/17 10:37:19;;;;;;;1999.90;999.90;;;;;;;27.09;42.08;99776.78;8190886;28;20086;-75
2022/05/17 10:41:24;;;;;;;1999.90;999.90;;;;;;;27.25;42.19;99782.81;8188737;28;20051;-75
2022/05/17 10:45:33;;;;;;;1999.90;999.90;;;;;;;27.53;42.74;99772.94;8170028;28;20074;-75
2022/05/17 10:49:49;;;;;;;1999.90;999.90;;;;;;;27.60;42.24;99767.09;8180548;28;20288;-75
2022/05/17 10:54:01;;;;;;;1999.90;999.90;;;;;;;27.75;41.96;99761.69;8186631;28;20050;-75
2022/05/17 10:58:24;;;;;;;1999.90;999.90;;;;;;;27.51;41.11;99759.72;8171468;29;20066;-75
2022/05/17 11:02:57;;;;;;;1999.90;999.90;;;;;;;27.55;40.94;99758.53;8183907;28;20054;-75
2022/05/17 11:07:53;;;;;;;1999.90;999.90;;;;;;;27.67;40.95;99748.88;8179173;29;20051;-74
2022/05/17 11:12:09;;;;;;;1999.90;999.90;;;;;;;27.77;38.37;99743.75;8163677;28;20651;-75
2022/05/17 11:16:31;;;;;;;1999.90;999.90;;;;;;;27.91;40.42;99743.63;8166391;28;20058;-74
2022/05/17 11:20:38;;;;;;;1999.90;999.90;;;;;;;28.26;37.73;99734.00;8152101;29;20325;-75
2022/05/17 11:25:06;;;;;;;1999.90;999.90;;;;;;;28.52;37.78;99728.56;8191356;28;20138;-74
2022/05/17 11:29:29;;;;;;;1999.90;999.90;;;;;;;28.59;37.92;99722.69;8181367;28;20468;-74
2022/05/17 11:33:31;;;;;;;1999.90;999.90;;;;;;;28.70;37.37;99721.88;8194921;28;20090;-74
2022/05/17 11:37:32;;;;;;;;;;;;;;;28.82;37.78;99712.09;8189799;28;20065;-74
2022/05/17 11:41:33;;;;;;;1999.90;999.90;;;;;;;28.86;36.16;99713.59;8204017;28;20579;-75
2022/05/17 11:45:49;;;;;;;1999.90;999.90;;;;;;;28.76;34.88;99696.53;8186225;28;20058;-74
2022/05/17 11:49:51;;;;;;;1999.90;999.90;;;;;;;28.89;35.84;99702.69;8209181;28;20448;-74
2022/05/17 11:53:52;;;;;;;1999.90;999.90;;;;;;;29.03;35.64;99693.63;8186090;28;20119;-74
2022/05/17 11:57:53;;;;;;;1999.90;999.90;;;;;;;29.10;35.66;99687.72;8204827;28;20043;-74
2022/05/17 12:02:10;;;;;;;1999.90;999.90;;;;;;;29.12;34.83;99679.56;8181993;28;20406;-75
2022/05/17 12:06:39;;;;;;;1999.90;999.90;;;;;;;29.08;34.19;99665.56;8190089;28;20618;-74
2022/05/17 12:10:40;;;;;;;1999.90;999.90;;;;;;;29.25;34.83;99660.72;8191724;28;20047;-75
2022/05/17 12:15:07;;;;;;;1999.90;999.90;;;;;;;29.31;34.70;99671.81;8202111;28;20460;-75
2022/05/17 12:19:53;;;;;;;1999.90;999.90;;;;;;;29.36;34.67;99666.97;8201161;28;20083;-74
2022/05/17 12:24:05;;;;;;;1999.90;999.90;;;;;;;29.41;33.64;99658.56;8171732;28;20062;-75
2022/05/17 12:28:19;;;;;;;1999.90;999.90;;;;;;;29.33;33.73;99651.16;8207534;28;20066;-75
2022/05/17 12:32:20;;;;;;;1999.90;999.90;;;;;;;29.40;35.21;99651.50;8204343;28;20062;-75
2022/05/17 12:36:27;;;;;;;1999.90;999.90;;;;;;;29.45;33.94;99649.34;8205319;28;20051;-75
2022/05/17 12:44:59;;;;;;;1999.90;999.90;;;;;;;29.44;34.76;99639.59;8202347;28;20053;-74
2022/05/17 12:49:13;;;;;;;1999.90;999.90;;;;;;;29.24;33.70;99630.44;8192798;28;20047;-75
2022/05/17 12:53:20;;;;;;;1999.90;999.90;;;;;;;29.32;34.88;99633.41;8212327;28;20059;-75
2022/05/17 12:57:26;;;;;;;1999.90;999.90;;;;;;;29.47;34.38;99632.25;8194048;28;20056;-75
2022/05/17 13:01:42;;;;;;;1999.90;999.90;;;;;;;29.25;31.74;99628.63;8193883;28;20070;-74
2022/05/17 13:05:51;;;;;;;1999.90;999.90;;;;;;;29.07;33.86;99630.91;8205774;28;20047;-73
2022/05/17 13:10:06;;;;;;;1999.90;999.90;;;;;;;28.59;34.20;99631.84;8189821;28;20149;-73
2022/05/17 13:14:22;;;;;;;1999.90;999.90;;;;;;;28.53;34.64;99629.59;8191463;28;20057;-73
2022/05/17 13:18:37;;;;;;;1999.90;999.90;;;;;;;28.23;34.49;99622.03;8205755;28;20139;-73
2022/05/17 13:22:44;;;;;;;1999.90;999.90;;;;;;;28.46;33.45;99620.34;8211303;28;20786;-74
2022/05/17 13:26:47;;;;;;;1999.90;999.90;;;;;;;28.54;31.50;99614.41;8210233;28;20709;-73
2022/05/17 13:30:50;;;;;;;1999.90;999.90;;;;;;;28.45;33.30;99597.28;8206712;28;20078;-73
2022/05/17 13:35:12;;;;;;;1999.90;999.90;;;;;;;28.89;33.51;99603.75;8187501;28;20441;-73
2022/05/17 13:39:25;;;;;;;1999.90;999.90;;;;;;;29.17;33.67;99598.00;8212913;28;20043;-73
2022/05/17 13:43:35;;;;;;;1999.90;999.90;;;;;;;29.41;32.58;99594.34;8208074;28;20049;-74
2022/05/17 13:47:40;;;;;;;1999.90;999.90;;;;;;;29.33;31.97;99597.66;8210324;28;20054;-73
2022/05/17 13:51:49;;;;;;;1999.90;999.90;;;;;;;29.53;33.48;99593.44;8211835;28;20062;-74
2022/05/17 13:55:52;;;;;;;1999.90;999.90;;;;;;;29.52;31.62;99593.56;8195685;28;20050;-76
2022/05/17 14:00:06;;;;;;;1999.90;999.90;;;;;;;29.61;32.73;99590.13;8181865;28;20047;-75
2022/05/17 14:04:22;;;;;;;1999.90;999.90;;;;;;;29.64;31.14;99588.06;8224002;28;20382;-75
2022/05/17 14:13:19;;;;;;;1999.90;999.90;;;;;;;29.77;32.62;99575.38;8219674;28;20154;-73
2022/05/17 14:17:27;;;;;;;1999.90;999.90;;;;;;;29.64;32.61;99565.81;8195129;28;20047;-74
2022/05/17 14:21:30;;;;;;;1999.90;999.90;;;;;;;29.75;33.55;99576.50;8189980;28;20057;-75
2022/05/17 14:25:31;;;;;;;1999.90;999.90;;;;;;;29.76;34.29;99570.16;8198157;28;20046;-74
2022/05/17 14:29:34;;;;;;;1999.90;999.90;;;;;;;29.68;33.21;99562.75;8228499;28;20053;-74
2022/05/17 14:33:36;;;;;;;1999.90;999.90;;;;;;;29.69;33.14;99560.94;8214005;28;20051;-74
2022/05/17 14:37:37;;;;;;;1999.90;999.90;;;;;;;29.62;32.77;99568.59;8216423;28;20085;-72
2022/05/17 14:41:40;;;;;;;1999.90;999.90;;;;;;;29.79;32.20;99562.72;8194951;28;20138;-73
2022/05/17 14:45:51;;;;;;;1999.90;999.90;;;;;;;29.81;30.72;99562.63;8211671;28;20053;-74
2022/05/17 14:49:56;;;;;;;1999.90;999.90;;;;;;;29.92;32.22;99562.59;8196446;28;20042;-74
2022/05/17 14:53:58;;;;;;;1999.90;999.90;;;;;;;29.97;31.03;99552.34;8194423;28;20545;-73
2022/05/17 14:57:59;;;;;;;1999.90;999.90;;;;;;;29.82;30.90;99545.59;8210522;28;20043;-74
2022/05/17 15:02:02;;;;;;;1999.90;999.90;;;;;;;29.63;30.75;99545.38;8206887;28;20866;-73
2022/05/17 15:06:03;;;;;;;1999.90;999.90;;;;;;;29.80;31.87;99542.16;8212994;28;20602;-73
2022/05/17 15:10:09;;;;;;;1999.90;999.90;;;;;;;29.87;30.87;99531.81;8194438;28;20094;-72
2022/05/17 15:14:11;;;;;;;1999.90;999.90;;;;;;;29.83;30.39;99531.22;8208851;28;20046;-73
2022/05/17 15:18:20;;;;;;;1999.90;999.90;;;;;;;29.83;31.29;99525.00;8212965;28;20351;-73
2022/05/17 15:22:22;;;;;;;1999.90;999.90;;;;;;;29.80;31.46;99523.41;8195113;28;20039;-73
2022/05/17 15:26:24;;;;;;;1999.90;999.90;;;;;;;29.89;31.71;99528.03;8196150;28;20617;-73
2022/05/17 15:30:29;;;;;;;1999.90;999.90;;;;;;;29.95;30.81;99526.66;8197910;28;20070;-73
2022/05/17 15:34:30;;;;;;;1999.90;999.90;;;;;;;29.92;30.79;99524.25;8176572;28;20054;-73
2022/05/17 15:38:35;;;;;;;1999.90;999.90;;;;;;;30.03;30.88;99529.56;8216292;28;20050;-73
2022/05/17 15:42:36;;;;;;;1999.90;999.90;;;;;;;30.15;30.42;99515.19;8199116;28;20055;-74
2022/05/17 15:55:18;;;;;;;1999.90;999.90;;;;;;;30.36;28.89;99521.44;8206593;28;20138;-73
2022/05/17 15:59:21;;;;;;;1999.90;999.90;;;;;;;30.37;29.01;99517.78;8214404;28;20681;-72
2022/05/17 16:03:32;;;;;;;1999.90;999.90;;;;;;;30.30;28.82;99511.22;8211798;28;20082;-72
2022/05/17 16:11:54;;;;;;;1999.90;999.90;;;;;;;30.23;29.44;99507.38;8210697;28;20047;-73
2022/05/17 16:15:56;;;;;;;1999.90;999.90;;;;;;;29.92;29.75;99503.66;8207227;28;20089;-72
2022/05/17 16:19:58;;;;;;;1999.90;999.90;;;;;;;29.32;31.07;99502.31;8194230;28;20061;-72
2022/05/17 16:24:00;;;;;;;1999.90;999.90;;;;;;;28.96;31.78;99500.72;8214055;28;20073;-73
2022/05/17 16:28:01;;;;;;;1999.90;999.90;;;;;;;28.54;31.65;99503.03;8209587;28;20126;-72
2022/05/17 16:32:05;;;;;;;1999.90;999.90;;;;;;;28.03;33.09;99494.50;8187365;28;20047;-74
2022/05/17 16:36:10;;;;;;;1999.90;999.90;;;;;;;27.60;33.12;99502.94;8214803;28;20058;-73
2022/05/17 16:40:11;;;;;;;1999.90;999.90;;;;;;;27.28;34.10;99507.91;8205587;28;20133;-73
2022/05/17 16:44:13;;;;;;;1999.90;999.90;;;;;;;27.06;33.44;99503.28;8193981;28;20043;-73
2022/05/17 16:48:16;;;;;;;1999.90;999.90;;;;;;;26.82;36.01;99501.44;8209419;28;20321;-73
2022/05/17 16:52:18;;;;;;;1999.90;999.90;;;;;;;26.56;34.21;99504.09;8211028;28;20058;-75
2022/05/17 16:56:19;;;;;;;1999.90;999.90;;;;;;;26.37;34.64;99512.47;8193408;28;20074;-74
2022/05/17 17:00:21;;;;;;;1999.90;999.90;;;;;;;26.27;36.41;99505.19;8191822;28;20077;-75
2022/05/17 17:04:24;;;;;;;1999.90;999.90;;;;;;;26.07;37.74;99510.03;8201371;28;20074;-73
2022/05/17 17:08:26;;;;;;;1999.90;999.90;;;;;;;25.88;37.13;99496.25;8210872;28;20046;-73
2022/05/17 17:12:29;;;;;;;1999.90;999.90;;;;;;;25.69;37.84;99501.06;8213254;28;20146;-73
2022/05/17 17:16:32;;;;;;;1999.90;999.90;;;;;;;25.51;37.78;99505.72;8193282;28;20055;-73
2022/05/17 17:20:34;;;;;;;1999.90;999.90;;;;;;;25.23;40.80;99499.47;8204973;28;20054;-73
2022/05/17 17:24:35;;;;;;;1999.90;999.90;;;;;;;25.00;40.54;99500.06;8203512;28;20050;-73
2022/05/17 17:28:39;;;;;;;1999.90;999.90;;;;;;;24.77;42.20;99495.25;8208374;28;20138;-73
2022/05/17 17:37:23;;;;;;;1999.90;999.90;;;;;;;24.26;42.48;99500.94;8187170;28;20082;-73
2022/05/17 17:41:24;;;;;;;1999.90;999.90;;;;;;;24.05;44.88;99497.72;8191727;28;20051;-74
2022/05/17 17:45:26;;;;;;;1999.90;999.90;;;;;;;23.93;46.18;99495.78;8158553;28;20067;-73
2022/05/17 17:49:29;;;;;;;1999.90;999.90;;;;;;;23.74;44.97;99503.09;8195728;28;20514;-72
2022/05/17 17:53:32;;;;;;;1999.90;999.90;;;;;;;23.53;46.65;99513.06;8194626;28;20158;-73
2022/05/17 17:57:36;;;;;;;1999.90;999.90;;;;;;;23.21;47.68;99501.59;8191842;29;20077;-73
2022/05/17 18:01:38;;;;;;;1999.90;999.90;;;;;;;22.99;48.67;99501.03;8187532;28;20055;-73
2022/05/17 18:05:40;;;;;;;1999.90;999.90;;;;;;;22.72;50.27;99501.50;8177376;28;20055;-73
2022/05/17 18:09:41;;;;;;;1999.90;999.90;;;;;;;22.51;50.26;99513.22;8182892;28;20125;-73
2022/05/17 18:13:46;;;;;;;1999.90;999.90;;;;;;;22.27;50.69;99520.63;8196627;28;20499;-73
2022/05/17 18:17:47;;;;;;;1999.90;999.90;;;;;;;22.03;51.44;99514.72;8189140;28;20075;-73
2022/05/17 18:21:49;;;;;;;1999.90;999.90;;;;;;;21.81;52.46;99525.47;8197215;28;20054;-72
2022/05/17 18:25:51;;;;;;;1999.90;999.90;;;;;;;21.66;52.69;99528.84;8177632;28;20503;-72
2022/05/17 18:29:52;;;;;;;;;;;;;;;21.47;54.00;99531.50;8193335;28;20043;-72
2022/05/17 18:33:54;;;;;;;1999.90;999.90;;;;;;;21.27;54.16;99534.22;8183575;28;19972;-73
2022/05/17 18:37:56;;;;;;;1999.90;999.90;;;;;;;21.10;54.85;99529.66;8201090;28;20053;-73
2022/05/17 18:41:57;;;;;;;1999.90;999.90;;;;;;;20.95;55.50;99535.63;8196283;28;20046;-72
2022/05/17 18:45:59;;;;;;;1999.90;999.90;;;;;;;20.83;56.34;99542.31;8190630;28;20167;-72
2022/05/17 18:50:05;;;;;;;1999.90;999.90;;;;;;;20.67;56.11;99538.63;8207571;28;20467;-72
2022/05/17 18:54:07;;;;;;;1999.90;999.90;;;;;;;20.48;57.32;99542.06;8214612;28;20137;-72